Time;durP1;ratioP1;P1;durP2;ratioP2;P2;SDS_P1;SDS_P2;PMS_P1;PMS_P2;Temp;Humidity;BMP_temperature;BMP_pressure;BME280_temperature;BME280_humidity;BME280_pressure;Samples;Min_cycle;Max_cycle;Signal;HPM_P1;HPM_P2
2022/01/14 09:29:31;;;;;;;22.60;15.20;;;3.70;99.90;;;;;;6344418;22;20967;-85
2022/01/14 09:31:57;;;;;;;22.90;15.27;;;3.70;99.90;;;;;;6267500;22;1528460;-85
2022/01/14 09:34:23;;;;;;;21.47;16.30;;;3.60;99.90;;;;;;6277995;22;20750;-85
2022/01/14 09:36:51;;;;;;;19.03;14.10;;;3.60;99.90;;;;;;6281508;22;20176;-85
2022/01/14 09:39:31;;;;;;;20.37;14.80;;;3.70;99.90;;;;;;6281996;22;20787;-86
2022/01/14 09:42:00;;;;;;;21.20;15.43;;;3.70;99.90;;;;;;6282788;22;20433;-86
2022/01/14 09:44:32;;;;;;;17.63;15.17;;;3.80;99.90;;;;;;6279746;22;20384;-84
2022/01/14 09:47:09;;;;;;;18.80;14.33;;;3.80;99.90;;;;;;6282441;22;20403;-85
2022/01/14 09:49:44;;;;;;;17.40;12.37;;;3.80;99.90;;;;;;6283885;22;20794;-86
2022/01/14 09:52:14;;;;;;;16.77;13.80;;;3.90;99.90;;;;;;6282627;22;20395;-86
2022/01/14 09:54:57;;;;;;;17.67;13.80;;;4.00;99.90;;;;;;6292563;22;20434;-85
2022/01/14 09:57:41;;;;;;;16.30;12.80;;;4.10;99.90;;;;;;6288226;22;20844;-84
2022/01/14 10:00:12;;;;;;;21.20;14.40;;;4.30;99.90;;;;;;6281342;22;20392;-86
2022/01/14 10:02:41;;;;;;;17.17;13.33;;;4.10;99.90;;;;;;6255280;22;20418;-85
2022/01/14 10:05:31;;;;;;;16.30;13.80;;;4.10;99.90;;;;;;6257357;22;20406;-86
2022/01/14 10:08:23;;;;;;;16.40;13.50;;;4.30;99.90;;;;;;6272719;22;20517;-84
2022/01/14 10:11:00;;;;;;;21.17;13.77;;;4.50;99.90;;;;;;6278059;22;20406;-85
2022/01/14 10:13:33;;;;;;;20.50;14.40;;;4.70;99.90;;;;;;6277252;22;20931;-84
2022/01/14 10:16:16;;;;;;;22.37;14.80;;;5.00;99.90;;;;;;6280132;22;20391;-85
2022/01/14 10:18:59;;;;;;;21.63;14.30;;;5.20;99.90;;;;;;6286895;22;20384;-85
2022/01/14 10:21:33;;;;;;;19.90;14.13;;;5.50;99.90;;;;;;6272905;22;20455;-85
2022/01/14 10:24:02;;;;;;;17.30;13.17;;;5.70;99.90;;;;;;6287956;22;20879;-84
2022/01/14 10:27:00;;;;;;;17.30;14.43;;;5.80;99.90;;;;;;6282434;22;20426;-84
2022/01/14 10:29:41;;;;;;;23.20;18.93;;;5.90;99.80;;;;;;6246025;22;20754;-84
2022/01/14 10:32:19;;;;;;;20.30;15.60;;;6.20;99.50;;;;;;6277400;22;20598;-84
2022/01/14 10:35:11;;;;;;;16.60;13.13;;;6.20;99.20;;;;;;6280043;22;20897;-84
2022/01/14 10:37:48;;;;;;;18.97;15.73;;;6.40;98.60;;;;;;6277326;22;20391;-84
2022/01/14 10:40:28;;;;;;;20.93;14.80;;;6.60;98.50;;;;;;6279927;22;20440;-84
2022/01/14 10:43:15;;;;;;;15.67;13.00;;;6.90;98.50;;;;;;6278691;22;21197;-84
2022/01/14 10:45:43;;;;;;;14.50;11.80;;;6.90;98.20;;;;;;6278851;22;20413;-85
2022/01/14 10:48:20;;;;;;;15.57;12.57;;;6.70;98.30;;;;;;6287396;22;20806;-84
2022/01/14 10:50:54;;;;;;;12.70;11.33;;;6.70;97.90;;;;;;6287537;22;20395;-84
2022/01/14 10:53:26;;;;;;;16.07;11.80;;;6.80;98.10;;;;;;6277709;22;20955;-84
2022/01/14 10:56:01;;;;;;;13.63;11.23;;;6.80;98.00;;;;;;6275990;22;20479;-84
2022/01/14 10:58:34;;;;;;;13.80;11.17;;;7.20;97.80;;;;;;6278792;22;20793;-85
2022/01/14 11:01:03;;;;;;;13.97;12.13;;;7.30;97.40;;;;;;6279989;22;20404;-85
2022/01/14 11:03:42;;;;;;;13.17;10.90;;;7.50;96.90;;;;;;6277897;22;20693;-85
2022/01/14 11:06:29;;;;;;;14.90;11.50;;;7.60;96.30;;;;;;6271172;22;20716;-84
2022/01/14 11:09:06;;;;;;;13.77;11.20;;;7.80;96.60;;;;;;6280055;22;20441;-84
2022/01/14 11:11:38;;;;;;;14.00;11.70;;;8.00;95.90;;;;;;6276525;22;20405;-84
2022/01/14 11:14:07;;;;;;;13.47;11.03;;;8.10;95.10;;;;;;6287641;22;20783;-84
2022/01/14 11:16:35;;;;;;;13.00;11.63;;;8.10;94.90;;;;;;6280296;22;20404;-84
2022/01/14 11:19:01;;;;;;;14.47;11.43;;;8.00;95.10;;;;;;6274369;22;20738;-84
2022/01/14 11:24:26;;;;;;;13.20;10.97;;;8.10;95.20;;;;;;6278190;22;20371;-84
2022/01/14 11:27:05;;;;;;;11.80;10.30;;;8.60;93.80;;;;;;6274857;22;20792;-84
2022/01/14 11:30:06;;;;;;;13.70;12.27;;;8.80;93.60;;;;;;6276071;22;20522;-86
2022/01/14 11:33:12;;;;;;;13.43;11.17;;;9.20;93.70;;;;;;6260735;22;20403;-87
2022/01/14 11:35:39;;;;;;;13.63;11.40;;;9.40;92.30;;;;;;6149175;23;20777;-85
2022/01/14 11:38:34;;;;;;;12.37;10.33;;;9.70;91.70;;;;;;6122528;23;20404;-85
2022/01/14 11:41:01;;;;;;;10.70;9.50;;;9.70;91.40;;;;;;6219599;22;20558;-85
2022/01/14 11:43:44;;;;;;;10.67;9.30;;;9.50;91.80;;;;;;6271971;22;20443;-87
2022/01/14 11:46:13;;;;;;;10.87;9.67;;;9.80;90.80;;;;;;6280748;22;20818;-86
2022/01/14 11:48:44;;;;;;;11.13;9.13;;;10.10;90.00;;;;;;6269914;22;20545;-86
2022/01/14 11:51:14;;;;;;;10.47;9.40;;;10.40;88.10;;;;;;6270362;22;20497;-85
